createdAt,value
2019-02-14T00:01:42.086Z,102175.30
2019-02-14T00:08:07.698Z,102182.34
2019-02-14T00:11:05.564Z,102180.21
2019-02-14T00:13:40.800Z,102183.16
2019-02-14T00:17:01.796Z,102184.59
2019-02-14T00:19:42.204Z,102190.08
2019-02-14T00:22:34.107Z,102190.31
2019-02-14T00:25:48.554Z,102186.63
2019-02-14T00:29:55.906Z,102185.36
2019-02-14T00:32:35.014Z,102197.69
2019-02-14T00:35:37.070Z,102192.68
2019-02-14T00:38:32.188Z,102193.13
2019-02-14T00:41:54.114Z,102199.75
2019-02-14T00:44:09.667Z,102200.69
2019-02-14T00:47:03.978Z,102204.23
2019-02-14T00:49:50.647Z,102211.02
2019-02-14T00:52:40.489Z,102210.06
2019-02-14T00:55:15.930Z,102200.94
2019-02-14T00:57:52.345Z,102196.81
2019-02-14T01:00:33.920Z,102193.18
2019-02-14T01:04:03.811Z,102189.37
2019-02-14T01:06:03.416Z,102192.48
2019-02-14T01:08:43.524Z,102201.89
2019-02-14T01:11:28.711Z,102204.45
2019-02-14T01:14:06.670Z,102198.08
2019-02-14T01:16:50.494Z,102190.84
2019-02-14T01:19:30.964Z,102192.25
2019-02-14T01:22:12.350Z,102198.95
2019-02-14T01:24:55.483Z,102202.81
2019-02-14T01:27:26.737Z,102204.82
2019-02-14T01:30:02.945Z,102214.53
2019-02-14T01:32:37.814Z,102222.76
2019-02-14T01:35:41.993Z,102218.36
2019-02-14T01:38:13.690Z,102217.30
2019-02-14T01:40:47.996Z,102219.45
2019-02-14T01:43:42.209Z,102220.09
2019-02-14T01:46:09.898Z,102224.02
2019-02-14T01:48:42.193Z,102227.23
2019-02-14T01:51:17.017Z,102220.13
2019-02-14T01:53:55.036Z,102230.55
2019-02-14T01:56:30.501Z,102233.11
2019-02-14T01:59:05.028Z,102242.41
2019-02-14T02:01:38.214Z,102242.17
2019-02-14T02:04:13.582Z,102238.95
2019-02-14T02:06:52.095Z,102241.85
2019-02-14T02:09:25.439Z,102240.00
2019-02-14T02:11:57.163Z,102234.63
2019-02-14T02:14:30.681Z,102225.98
2019-02-14T02:17:03.251Z,102218.52
2019-02-14T02:19:47.744Z,102221.18
2019-02-14T02:22:19.401Z,102216.30
2019-02-14T02:24:52.201Z,102212.25
2019-02-14T02:27:25.674Z,102213.89
2019-02-14T02:30:26.395Z,102206.19
2019-02-14T02:32:59.837Z,102213.45
2019-02-14T02:35:35.075Z,102205.67
2019-02-14T02:38:07.752Z,102202.92
2019-02-14T02:40:46.728Z,102206.20
2019-02-14T02:43:24.218Z,102214.52
2019-02-14T02:45:56.704Z,102221.77
2019-02-14T02:48:29.339Z,102212.34
2019-02-14T02:51:00.725Z,102218.25
2019-02-14T02:53:36.886Z,102212.79
2019-02-14T02:56:12.946Z,102211.53
2019-02-14T02:58:47.739Z,102218.53
2019-02-14T03:01:23.724Z,102219.33
2019-02-14T03:04:00.127Z,102228.43
2019-02-14T03:06:39.494Z,102236.59
2019-02-14T03:09:11.295Z,102239.68
2019-02-14T03:11:42.829Z,102244.38
2019-02-14T03:14:17.454Z,102245.34
2019-02-14T03:16:53.337Z,102238.80
2019-02-14T03:19:25.978Z,102228.91
2019-02-14T03:22:02.727Z,102223.16
2019-02-14T03:24:37.361Z,102234.58
2019-02-14T03:27:11.317Z,102231.11
2019-02-14T03:29:42.991Z,102222.46
2019-02-14T03:32:22.028Z,102214.75
2019-02-14T03:34:56.149Z,102222.11
2019-02-14T03:37:34.884Z,102233.33
2019-02-14T03:40:14.310Z,102232.05
2019-02-14T03:42:53.966Z,102232.62
2019-02-14T03:45:34.203Z,102236.87
2019-02-14T03:48:10.251Z,102249.65
2019-02-14T03:50:43.659Z,102256.80
2019-02-14T03:53:17.766Z,102257.61
2019-02-14T03:55:51.401Z,102258.75
2019-02-14T03:58:40.284Z,102248.22
2019-02-14T04:01:11.361Z,102244.18
2019-02-14T04:03:45.846Z,102243.00
2019-02-14T04:06:27.529Z,102250.04
2019-02-14T04:09:02.407Z,102258.55
2019-02-14T04:11:39.880Z,102255.12
2019-02-14T04:14:14.164Z,102252.79
2019-02-14T04:16:45.646Z,102267.01
2019-02-14T04:19:16.902Z,102275.27
2019-02-14T04:21:51.751Z,102275.56
2019-02-14T04:24:26.564Z,102281.97
2019-02-14T04:27:01.018Z,102279.97
2019-02-14T04:29:34.979Z,102279.53
2019-02-14T04:32:10.198Z,102287.22
2019-02-14T04:34:49.276Z,102280.47
2019-02-14T04:37:22.734Z,102285.95
2019-02-14T04:39:55.151Z,102295.44
2019-02-14T04:42:29.294Z,102282.23
2019-02-14T04:45:11.415Z,102266.70
2019-02-14T04:47:44.935Z,102260.08
2019-02-14T04:50:17.369Z,102264.09
2019-02-14T04:53:15.916Z,102270.00
2019-02-14T04:55:53.996Z,102275.90
2019-02-14T04:58:27.483Z,102258.78
2019-02-14T05:01:04.724Z,102270.09
2019-02-14T05:03:39.810Z,102275.77
2019-02-14T05:06:20.435Z,102268.35
2019-02-14T05:09:07.754Z,102272.07
2019-02-14T05:11:50.144Z,102287.44
2019-02-14T05:14:37.754Z,102299.59
2019-02-14T05:17:16.614Z,102312.50
2019-02-14T05:19:52.709Z,102294.98
2019-02-14T05:22:33.466Z,102276.14
2019-02-14T05:25:08.375Z,102296.84
2019-02-14T05:27:47.323Z,102296.61
2019-02-14T05:30:35.837Z,102286.31
2019-02-14T05:33:01.405Z,102289.83
2019-02-14T05:35:35.539Z,102304.98
2019-02-14T05:38:06.764Z,102280.64
2019-02-14T05:40:45.019Z,102266.99
2019-02-14T05:43:24.940Z,102280.02
2019-02-14T05:45:59.022Z,102268.40
2019-02-14T05:48:36.583Z,102274.07
2019-02-14T05:51:15.642Z,102276.82
2019-02-14T05:53:52.336Z,102283.25
2019-02-14T05:56:32.702Z,102289.81
2019-02-14T05:59:06.693Z,102280.17
2019-02-14T06:01:45.839Z,102292.22
2019-02-14T06:04:23.702Z,102306.48
2019-02-14T06:07:10.880Z,102290.63
2019-02-14T06:09:55.280Z,102290.95
2019-02-14T06:12:23.730Z,102296.98
2019-02-14T06:15:28.734Z,102304.95
2019-02-14T06:18:08.706Z,102308.69
2019-02-14T06:20:43.383Z,102309.42
2019-02-14T06:23:14.595Z,102312.89
2019-02-14T06:25:50.807Z,102300.38
2019-02-14T06:28:27.647Z,102286.91
2019-02-14T06:31:12.044Z,102279.69
2019-02-14T06:33:51.640Z,102284.03
2019-02-14T06:36:43.012Z,102305.21
2019-02-14T06:39:17.766Z,102317.09
2019-02-14T06:42:49.568Z,102316.77
2019-02-14T06:45:04.284Z,102304.86
2019-02-14T06:47:19.926Z,102299.64
2019-02-14T06:50:04.954Z,102289.42
2019-02-14T06:52:37.833Z,102295.28
2019-02-14T06:55:12.791Z,102296.88
2019-02-14T06:57:43.909Z,102311.96
2019-02-14T07:00:22.191Z,102316.09
2019-02-14T07:02:59.322Z,102314.39
2019-02-14T07:05:33.183Z,102312.19
2019-02-14T07:08:11.587Z,102293.92
2019-02-14T07:10:57.793Z,102298.19
2019-02-14T07:13:38.307Z,102297.20
2019-02-14T07:16:19.139Z,102307.84
2019-02-14T07:18:50.892Z,102312.99
2019-02-14T07:21:33.722Z,102318.45
2019-02-14T07:24:12.173Z,102315.08
2019-02-14T07:26:48.053Z,102329.34
2019-02-14T07:29:33.558Z,102337.77
2019-02-14T07:32:35.944Z,102340.39
2019-02-14T07:35:23.574Z,102340.28
2019-02-14T07:38:07.324Z,102349.70
2019-02-14T07:41:00.206Z,102366.87
2019-02-14T07:43:31.183Z,102362.55
2019-02-14T07:46:22.667Z,102362.34
2019-02-14T07:49:01.379Z,102359.41
2019-02-14T07:51:40.332Z,102357.83
2019-02-14T07:54:27.430Z,102359.77
2019-02-14T07:57:14.663Z,102372.02
2019-02-14T07:59:47.426Z,102374.92
2019-02-14T08:02:21.226Z,102383.64
2019-02-14T08:05:49.028Z,102381.96
2019-02-14T08:09:10.319Z,102379.72
2019-02-14T08:11:45.834Z,102375.41
2019-02-14T08:15:23.669Z,102370.20
2019-02-14T08:17:28.968Z,102373.63
2019-02-14T08:20:03.060Z,102370.21
2019-02-14T08:22:47.383Z,102390.79
2019-02-14T08:25:31.823Z,102384.79
2019-02-14T08:28:10.774Z,102376.79
2019-02-14T08:30:47.851Z,102368.86
2019-02-14T08:33:40.613Z,102361.44
2019-02-14T08:36:28.373Z,102355.08
2019-02-14T08:39:15.661Z,102359.41
2019-02-14T08:46:38.361Z,102360.94
2019-02-14T08:49:58.361Z,102351.23
2019-02-14T08:52:32.679Z,102358.91
2019-02-14T08:55:32.707Z,102377.09
2019-02-14T08:58:47.458Z,102371.29
2019-02-14T09:05:04.909Z,102355.36
2019-02-14T09:08:39.577Z,102354.48
2019-02-14T09:14:15.571Z,102330.91
2019-02-14T09:17:19.607Z,102331.51
2019-02-14T09:20:29.277Z,102326.00
2019-02-14T09:23:20.699Z,102340.24
2019-02-14T09:26:09.166Z,102328.64
2019-02-14T09:28:36.810Z,102326.05
2019-02-14T09:31:36.530Z,102325.03
2019-02-14T09:34:25.796Z,102323.02
2019-02-14T09:37:16.439Z,102321.96
2019-02-14T09:41:28.954Z,102318.78
2019-02-14T09:42:59.155Z,102304.49
2019-02-14T09:45:38.557Z,102310.08
2019-02-14T09:48:10.515Z,102309.80
2019-02-14T09:50:55.551Z,102314.20
2019-02-14T09:53:40.457Z,102312.05
2019-02-14T09:56:49.755Z,102313.89
2019-02-14T09:59:33.838Z,102310.28
2019-02-14T10:02:15.603Z,102317.95
2019-02-14T10:05:21.505Z,102312.16
2019-02-14T10:08:12.405Z,102316.23
2019-02-14T10:10:56.967Z,102320.63
2019-02-14T10:14:16.124Z,102308.92
2019-02-14T10:16:53.881Z,102309.28
2019-02-14T10:23:21.160Z,102306.30
2019-02-14T10:25:52.942Z,102301.11
2019-02-14T10:28:27.085Z,102300.20
2019-02-14T10:37:01.800Z,102279.82
2019-02-14T10:39:42.621Z,102280.55
2019-02-14T10:42:20.342Z,102271.53
2019-02-14T10:49:01.023Z,102274.59
2019-02-14T10:52:36.165Z,102285.42
2019-02-14T10:55:38.146Z,102288.48
2019-02-14T10:59:06.055Z,102286.20
2019-02-14T11:10:51.536Z,102284.45
2019-02-14T11:13:29.884Z,102281.95
2019-02-14T11:15:55.643Z,102281.31
2019-02-14T11:18:50.749Z,102284.00
2019-02-14T11:21:49.342Z,102280.75
2019-02-14T11:24:28.579Z,102279.69
2019-02-14T11:27:25.575Z,102278.79
2019-02-14T11:30:13.966Z,102282.17
2019-02-14T11:32:54.684Z,102277.25
2019-02-14T11:37:14.981Z,102271.32
2019-02-14T11:38:30.609Z,102267.41
2019-02-14T11:42:03.599Z,102263.19
2019-02-14T11:44:53.039Z,102265.98
2019-02-14T11:47:35.792Z,102263.00
2019-02-14T11:53:55.316Z,102251.08
2019-02-14T12:07:39.419Z,102218.99
2019-02-14T12:10:40.561Z,102215.73
2019-02-14T12:13:29.342Z,102216.61
2019-02-14T12:16:19.216Z,102213.95
2019-02-14T12:19:10.942Z,102213.08
2019-02-14T12:22:13.097Z,102218.60
2019-02-14T12:32:29.842Z,102217.66
2019-02-14T12:35:21.385Z,102217.16
2019-02-14T12:37:59.646Z,102218.02
2019-02-14T12:40:45.511Z,102216.91
2019-02-14T12:43:54.944Z,102202.41
2019-02-14T12:46:45.068Z,102195.91
2019-02-14T12:49:25.116Z,102201.98
2019-02-14T12:52:06.776Z,102204.80
2019-02-14T12:54:41.379Z,102202.48
2019-02-14T12:57:15.725Z,102205.27
2019-02-14T12:59:59.407Z,102204.89
2019-02-14T13:02:41.332Z,102196.64
2019-02-14T13:05:30.307Z,102196.81
2019-02-14T13:08:18.452Z,102191.75
2019-02-14T13:10:58.159Z,102180.30
2019-02-14T13:13:49.746Z,102187.87
2019-02-14T13:16:31.099Z,102182.06
2019-02-14T13:19:06.966Z,102175.49
2019-02-14T13:21:42.590Z,102175.73
2019-02-14T13:24:33.520Z,102177.72
2019-02-14T13:27:17.135Z,102171.45
2019-02-14T13:29:48.638Z,102163.95
2019-02-14T13:32:19.803Z,102164.97
2019-02-14T13:35:07.100Z,102161.53
2019-02-14T13:37:54.296Z,102164.47
2019-02-14T13:40:44.577Z,102171.28
2019-02-14T13:43:38.510Z,102169.65
2019-02-14T13:46:11.571Z,102175.09
2019-02-14T13:48:51.275Z,102170.72
2019-02-14T13:51:29.787Z,102167.24
2019-02-14T13:54:29.739Z,102167.85
2019-02-14T13:56:59.153Z,102167.19
2019-02-14T13:59:36.476Z,102168.45
2019-02-14T14:02:14.635Z,102171.36
2019-02-14T14:04:49.917Z,102174.78
2019-02-14T14:07:20.719Z,102184.31
2019-02-14T14:09:55.091Z,102184.33
2019-02-14T14:12:26.480Z,102182.27
2019-02-14T14:15:06.823Z,102182.67
2019-02-14T14:17:38.617Z,102179.03
2019-02-14T14:20:12.730Z,102175.45
2019-02-14T14:23:04.213Z,102176.88
2019-02-14T14:25:43.850Z,102174.96
2019-02-14T14:28:37.057Z,102175.44
2019-02-14T14:34:29.088Z,102176.85
2019-02-14T14:37:13.254Z,102180.79
2019-02-14T14:40:00.643Z,102185.04
2019-02-14T14:43:12.187Z,102169.83
2019-02-14T14:49:13.759Z,102178.06
2019-02-14T14:51:47.691Z,102175.16
2019-02-14T14:56:06.747Z,102174.30
2019-02-14T14:57:58.867Z,102177.89
2019-02-14T15:00:38.578Z,102179.34
2019-02-14T15:03:25.657Z,102175.03
2019-02-14T15:06:08.243Z,102172.33
2019-02-14T15:08:44.392Z,102168.03
2019-02-14T15:11:21.094Z,102170.72
2019-02-14T15:14:00.542Z,102168.51
2019-02-14T15:16:40.774Z,102167.69
2019-02-14T15:19:15.134Z,102172.52
2019-02-14T15:22:20.097Z,102175.25
2019-02-14T15:27:56.118Z,102169.44
2019-02-14T15:30:45.559Z,102169.23
2019-02-14T15:33:21.077Z,102163.47
2019-02-14T15:36:01.747Z,102158.11
2019-02-14T15:39:03.062Z,102159.77
2019-02-14T15:41:46.568Z,102164.19
2019-02-14T15:47:39.078Z,102166.17
2019-02-14T15:50:19.737Z,102168.36
2019-02-14T15:53:17.456Z,102161.53
2019-02-14T15:55:53.762Z,102162.21
2019-02-14T16:09:48.910Z,102160.02
2019-02-14T16:12:21.804Z,102158.89
2019-02-14T16:15:26.619Z,102168.94
2019-02-14T16:18:11.755Z,102167.55
2019-02-14T16:20:56.219Z,102166.41
2019-02-14T16:23:57.597Z,102164.48
2019-02-14T16:27:50.537Z,102161.67
2019-02-14T16:30:29.377Z,102158.80
2019-02-14T16:33:15.130Z,102156.68
2019-02-14T16:36:47.920Z,102152.34
2019-02-14T16:39:25.675Z,102151.16
2019-02-14T16:41:56.566Z,102150.20
2019-02-14T16:48:19.660Z,102152.07
2019-02-14T16:54:45.221Z,102150.58
2019-02-14T16:57:57.684Z,102158.77
2019-02-14T17:00:52.801Z,102154.14
2019-02-14T17:04:34.631Z,102157.52
2019-02-14T17:07:20.110Z,102157.08
2019-02-14T17:10:05.688Z,102160.69
2019-02-14T17:12:41.970Z,102160.45
2019-02-14T17:15:29.557Z,102162.83
2019-02-14T17:18:15.462Z,102162.88
2019-02-14T17:20:49.058Z,102161.80
2019-02-14T17:23:45.824Z,102166.44
2019-02-14T17:27:22.235Z,102170.71
2019-02-14T17:30:13.956Z,102164.27
2019-02-14T17:32:48.983Z,102163.75
2019-02-14T17:35:31.318Z,102164.70
2019-02-14T17:38:09.691Z,102162.33
2019-02-14T17:40:54.685Z,102163.87
2019-02-14T17:43:37.475Z,102166.94
2019-02-14T17:46:27.225Z,102160.49
2019-02-14T17:49:31.882Z,102167.41
2019-02-14T17:52:11.143Z,102170.39
2019-02-14T17:55:36.123Z,102168.30
2019-02-14T17:58:14.029Z,102172.64
2019-02-14T18:01:30.542Z,102172.51
2019-02-14T18:04:27.502Z,102174.08
2019-02-14T18:07:06.131Z,102174.08
2019-02-14T18:09:47.054Z,102174.38
2019-02-14T18:16:07.494Z,102176.27
2019-02-14T18:18:51.738Z,102173.27
2019-02-14T18:21:32.873Z,102178.73
2019-02-14T18:24:13.492Z,102182.41
2019-02-14T18:27:01.541Z,102177.61
2019-02-14T18:30:07.711Z,102172.98
2019-02-14T18:33:03.449Z,102183.91
2019-02-14T18:36:43.916Z,102190.81
2019-02-14T18:39:31.358Z,102187.12
2019-02-14T18:42:16.878Z,102190.88
2019-02-14T18:45:02.375Z,102194.08
2019-02-14T18:48:12.070Z,102194.12
2019-02-14T18:51:10.223Z,102189.59
2019-02-14T18:53:58.669Z,102191.44
2019-02-14T18:56:39.267Z,102190.56
2019-02-14T19:00:05.550Z,102182.23
2019-02-14T19:02:59.463Z,102191.28
2019-02-14T19:05:47.903Z,102187.86
2019-02-14T19:08:41.490Z,102186.46
2019-02-14T19:11:37.391Z,102183.66
2019-02-14T19:16:03.161Z,102188.98
2019-02-14T19:17:01.006Z,102184.65
2019-02-14T19:19:37.951Z,102190.74
2019-02-14T19:22:16.272Z,102190.84
2019-02-14T19:24:49.871Z,102188.91
2019-02-14T19:27:25.292Z,102186.75
2019-02-14T19:30:06.335Z,102186.69
2019-02-14T19:33:06.725Z,102193.70
2019-02-14T19:36:13.362Z,102192.91
2019-02-14T19:44:42.959Z,102189.16
2019-02-14T19:47:29.564Z,102185.51
2019-02-14T19:49:52.148Z,102191.56
2019-02-14T19:52:36.181Z,102188.64
2019-02-14T19:55:22.095Z,102189.36
2019-02-14T19:58:20.536Z,102182.84
2019-02-14T20:01:00.843Z,102183.86
2019-02-14T20:03:36.319Z,102182.40
2019-02-14T20:06:20.247Z,102182.61
2019-02-14T20:08:51.985Z,102182.02
2019-02-14T20:11:38.605Z,102177.66
2019-02-14T20:15:09.181Z,102174.61
2019-02-14T20:18:47.455Z,102162.22
2019-02-14T20:21:27.052Z,102165.33
2019-02-14T20:24:09.448Z,102169.00
2019-02-14T20:26:43.778Z,102169.44
2019-02-14T20:29:30.749Z,102165.42
2019-02-14T20:32:03.683Z,102165.13
2019-02-14T20:34:40.136Z,102157.56
2019-02-14T20:37:14.399Z,102157.47
2019-02-14T20:39:47.286Z,102157.88
2019-02-14T20:42:19.838Z,102155.41
2019-02-14T20:45:09.990Z,102162.94
2019-02-14T20:47:41.940Z,102152.64
2019-02-14T20:50:47.661Z,102160.36
2019-02-14T20:53:16.163Z,102154.47
2019-02-14T20:55:47.899Z,102152.27
2019-02-14T20:58:30.931Z,102148.94
2019-02-14T21:01:18.863Z,102147.33
2019-02-14T21:03:50.229Z,102142.59
2019-02-14T21:06:36.731Z,102142.09
2019-02-14T21:09:12.868Z,102139.57
2019-02-14T21:11:54.573Z,102139.41
2019-02-14T21:14:31.115Z,102140.02
2019-02-14T21:17:10.788Z,102130.59
2019-02-14T21:19:43.549Z,102139.52
2019-02-14T21:22:25.563Z,102136.90
2019-02-14T21:25:07.479Z,102138.87
2019-02-14T21:27:46.463Z,102134.17
2019-02-14T21:30:23.604Z,102139.41
2019-02-14T21:33:15.416Z,102141.66
2019-02-14T21:36:15.094Z,102143.04
2019-02-14T21:38:47.737Z,102146.47
2019-02-14T21:41:45.543Z,102138.97
2019-02-14T21:44:41.076Z,102134.09
2019-02-14T21:47:22.849Z,102137.67
2019-02-14T21:49:59.503Z,102138.27
2019-02-14T21:52:50.857Z,102143.58
2019-02-14T21:55:54.536Z,102142.36
2019-02-14T21:58:12.687Z,102147.23
2019-02-14T22:00:45.729Z,102143.26
2019-02-14T22:03:22.583Z,102143.93
2019-02-14T22:05:56.020Z,102132.62
2019-02-14T22:08:41.259Z,102145.19
2019-02-14T22:11:19.735Z,102147.23
2019-02-14T22:14:05.988Z,102145.66
2019-02-14T22:16:39.935Z,102145.39
2019-02-14T22:19:21.344Z,102145.82
2019-02-14T22:21:57.787Z,102146.17
2019-02-14T22:24:30.888Z,102154.23
2019-02-14T22:27:03.929Z,102153.56
2019-02-14T22:29:42.140Z,102146.22
2019-02-14T22:32:13.127Z,102154.00
2019-02-14T22:34:45.639Z,102155.56
2019-02-14T22:37:19.635Z,102157.72
2019-02-14T22:39:53.267Z,102160.55
2019-02-14T22:42:25.597Z,102163.02
2019-02-14T22:44:56.811Z,102157.17
2019-02-14T22:47:27.974Z,102165.14
2019-02-14T22:50:15.080Z,102172.05
2019-02-14T22:52:53.295Z,102168.16
2019-02-14T22:55:24.273Z,102171.70
2019-02-14T22:57:57.082Z,102166.28
2019-02-14T23:00:45.893Z,102167.92
2019-02-14T23:03:22.031Z,102174.16
2019-02-14T23:05:54.738Z,102176.20
2019-02-14T23:08:31.329Z,102173.05
2019-02-14T23:11:06.088Z,102171.90
2019-02-14T23:13:48.924Z,102172.32
2019-02-14T23:16:21.352Z,102168.58
2019-02-14T23:18:53.916Z,102169.16
2019-02-14T23:21:28.014Z,102169.83
2019-02-14T23:24:02.035Z,102166.36
2019-02-14T23:26:47.557Z,102167.02
2019-02-14T23:29:27.287Z,102167.25
2019-02-14T23:32:07.081Z,102170.97
2019-02-14T23:35:06.310Z,102170.58
2019-02-14T23:37:20.571Z,102169.66
2019-02-14T23:39:55.788Z,102174.92
2019-02-14T23:42:33.084Z,102176.66
2019-02-14T23:45:11.804Z,102176.80
2019-02-14T23:47:50.660Z,102176.51
2019-02-14T23:50:35.808Z,102187.17
2019-02-14T23:53:17.226Z,102181.25
2019-02-14T23:55:54.026Z,102183.63
2019-02-14T23:58:41.528Z,102185.31
